createdAt,value
2023-11-20T00:02:47.480Z,90.20
2023-11-20T00:06:11.543Z,90.25
2023-11-20T00:09:36.015Z,90.24
2023-11-20T00:13:00.150Z,90.24
2023-11-20T00:16:24.281Z,90.25
2023-11-20T00:19:48.323Z,90.29
2023-11-20T00:23:12.281Z,90.37
2023-11-20T00:26:36.728Z,90.33
2023-11-20T00:30:01.422Z,90.34
2023-11-20T00:33:25.662Z,90.37
2023-11-20T00:36:49.747Z,90.44
2023-11-20T00:40:14.714Z,90.46
2023-11-20T00:43:40.637Z,90.47
2023-11-20T00:47:05.040Z,90.47
2023-11-20T00:50:29.152Z,90.47
2023-11-20T00:53:53.580Z,90.47
2023-11-20T00:57:17.906Z,90.47
2023-11-20T01:00:42.053Z,90.48
2023-11-20T01:04:06.758Z,90.44
2023-11-20T01:07:30.758Z,90.43
2023-11-20T01:10:54.777Z,90.39
2023-11-20T01:14:18.875Z,90.41
2023-11-20T01:17:43.002Z,90.43
2023-11-20T01:21:07.352Z,90.40
2023-11-20T01:24:31.338Z,90.42
2023-11-20T01:27:55.454Z,90.39
2023-11-20T01:31:19.950Z,90.38
2023-11-20T01:34:44.204Z,90.42
2023-11-20T01:38:08.266Z,90.45
2023-11-20T01:41:34.476Z,90.46
2023-11-20T01:45:00.582Z,90.46
2023-11-20T01:48:24.722Z,90.44
2023-11-20T01:51:49.147Z,90.43
2023-11-20T01:55:15.528Z,90.49
2023-11-20T01:58:39.719Z,90.49
2023-11-20T02:02:04.772Z,90.50
2023-11-20T02:05:28.779Z,90.51
2023-11-20T02:08:53.359Z,90.50
2023-11-20T02:12:17.416Z,90.49
2023-11-20T02:15:41.458Z,90.54
2023-11-20T02:19:18.217Z,90.55
2023-11-20T02:22:42.252Z,90.56
2023-11-20T02:26:28.634Z,90.55
2023-11-20T02:29:55.837Z,90.61
2023-11-20T02:33:19.806Z,90.65
2023-11-20T02:36:43.879Z,90.64
2023-11-20T02:40:11.346Z,90.65
2023-11-20T02:43:40.091Z,90.63
2023-11-20T02:47:04.253Z,90.78
2023-11-20T02:50:30.031Z,90.75
2023-11-20T02:53:53.910Z,90.74
2023-11-20T02:57:18.011Z,90.75
2023-11-20T03:00:42.249Z,90.73
2023-11-20T03:04:06.934Z,90.76
2023-11-20T03:07:30.979Z,90.76
2023-11-20T03:10:55.031Z,90.77
2023-11-20T03:14:19.685Z,90.77
2023-11-20T03:17:44.078Z,90.78
2023-11-20T03:21:08.273Z,90.84
2023-11-20T03:24:32.206Z,90.82
2023-11-20T03:27:56.459Z,90.90
2023-11-20T03:31:21.322Z,90.99
2023-11-20T03:34:45.681Z,90.97
2023-11-20T03:38:09.760Z,90.96
2023-11-20T03:41:34.571Z,90.94
2023-11-20T03:44:58.609Z,90.91
2023-11-20T03:48:22.638Z,90.90
2023-11-20T03:51:47.160Z,90.89
2023-11-20T03:55:12.104Z,90.91
2023-11-20T03:58:36.171Z,90.91
2023-11-20T04:02:00.170Z,90.91
2023-11-20T04:05:25.680Z,90.93
2023-11-20T04:08:49.644Z,90.95
2023-11-20T04:12:13.647Z,90.96
2023-11-20T04:15:37.725Z,90.93
2023-11-20T04:19:02.613Z,90.94
2023-11-20T04:22:28.006Z,90.96
2023-11-20T04:25:52.262Z,90.93
2023-11-20T04:29:17.775Z,90.92
2023-11-20T04:32:42.378Z,90.92
2023-11-20T04:36:08.536Z,90.96
2023-11-20T04:39:32.599Z,90.95
2023-11-20T04:42:56.501Z,90.98
2023-11-20T04:46:20.505Z,91.04
2023-11-20T04:49:44.373Z,91.12
2023-11-20T04:53:08.261Z,91.16
2023-11-20T04:56:35.254Z,91.14
2023-11-20T05:00:02.202Z,91.10
2023-11-20T05:03:26.320Z,91.08
2023-11-20T05:06:50.441Z,91.05
2023-11-20T05:10:14.506Z,91.03
2023-11-20T05:13:38.491Z,91.02
2023-11-20T05:17:02.516Z,91.06
2023-11-20T05:20:27.612Z,91.15
2023-11-20T05:27:15.925Z,91.38
2023-11-20T05:30:40.242Z,91.45
2023-11-20T05:34:04.612Z,91.51
2023-11-20T05:37:28.541Z,91.58
2023-11-20T05:40:52.614Z,91.67
2023-11-20T05:44:16.727Z,91.68
2023-11-20T05:47:40.752Z,91.73
2023-11-20T05:51:05.361Z,91.74
2023-11-20T05:54:29.367Z,91.78
2023-11-20T05:57:53.751Z,91.83
2023-11-20T06:01:17.931Z,91.88
2023-11-20T06:04:42.307Z,91.96
2023-11-20T06:08:06.401Z,92.04
2023-11-20T06:11:33.998Z,92.10
2023-11-20T06:14:58.985Z,92.12
2023-11-20T06:18:23.072Z,92.10
2023-11-20T06:21:48.542Z,92.13
2023-11-20T06:25:13.818Z,92.21
2023-11-20T06:28:37.993Z,92.29
2023-11-20T06:32:03.040Z,92.39
2023-11-20T06:35:27.064Z,92.47
2023-11-20T06:38:51.311Z,92.46
2023-11-20T06:42:15.967Z,92.49
2023-11-20T06:45:40.821Z,92.49
2023-11-20T06:49:05.207Z,92.57
2023-11-20T06:52:29.347Z,92.57
2023-11-20T06:55:53.347Z,92.56
2023-11-20T06:59:18.815Z,92.61
2023-11-20T07:02:44.255Z,92.67
2023-11-20T07:06:08.369Z,92.74
2023-11-20T07:09:32.313Z,92.78
2023-11-20T07:12:58.019Z,92.73
2023-11-20T07:16:24.638Z,92.72
2023-11-20T07:19:49.072Z,92.69
2023-11-20T07:23:12.985Z,92.67
2023-11-20T07:26:37.174Z,92.67
2023-11-20T07:30:01.206Z,92.69
2023-11-20T07:33:25.192Z,92.73
2023-11-20T07:36:49.183Z,92.76
2023-11-20T07:40:13.695Z,92.75
2023-11-20T07:43:37.775Z,92.72
2023-11-20T07:47:02.175Z,92.71
2023-11-20T07:50:26.227Z,92.69
2023-11-20T07:53:51.154Z,92.71
2023-11-20T07:57:16.632Z,92.73
2023-11-20T08:00:40.648Z,92.73
2023-11-20T08:04:05.621Z,92.72
2023-11-20T08:07:29.941Z,92.69
2023-11-20T08:10:53.993Z,92.64
2023-11-20T08:14:19.953Z,92.59
2023-11-20T08:17:44.095Z,92.58
2023-11-20T08:21:08.634Z,92.55
2023-11-20T08:24:34.219Z,92.53
2023-11-20T08:27:58.238Z,92.52
2023-11-20T08:31:22.363Z,92.51
2023-11-20T08:34:47.549Z,92.50
2023-11-20T08:38:11.704Z,92.47
2023-11-20T08:41:35.742Z,92.44
2023-11-20T08:45:00.898Z,92.41
2023-11-20T08:48:25.110Z,92.37
2023-11-20T08:51:56.281Z,92.34
2023-11-20T08:55:26.009Z,92.34
2023-11-20T08:58:50.174Z,92.33
2023-11-20T09:02:14.180Z,92.39
2023-11-20T09:05:38.204Z,92.44
2023-11-20T09:09:02.142Z,92.43
2023-11-20T09:12:26.200Z,92.29
2023-11-20T09:15:50.174Z,91.97
2023-11-20T09:19:14.366Z,91.73
2023-11-20T09:22:38.769Z,91.75
2023-11-20T09:26:04.135Z,91.75
2023-11-20T09:29:28.238Z,91.69
2023-11-20T09:32:52.362Z,91.57
2023-11-20T09:36:16.804Z,91.49
2023-11-20T09:39:43.456Z,91.42
2023-11-20T09:43:10.450Z,91.37
2023-11-20T09:46:39.158Z,91.33
2023-11-20T09:50:04.999Z,90.82
2023-11-20T09:53:34.307Z,90.28
2023-11-20T09:56:58.421Z,90.12
2023-11-20T10:00:23.531Z,90.08
2023-11-20T10:03:51.773Z,89.94
2023-11-20T10:07:19.502Z,89.98
2023-11-20T10:10:44.943Z,90.06
2023-11-20T10:14:09.217Z,90.12
2023-11-20T10:17:33.495Z,90.20
2023-11-20T10:21:02.564Z,90.23
2023-11-20T10:24:27.351Z,90.27
2023-11-20T10:27:55.038Z,90.33
2023-11-20T10:31:19.777Z,90.37
2023-11-20T10:34:44.461Z,90.40
2023-11-20T10:38:08.885Z,90.45
2023-11-20T10:41:33.365Z,90.47
2023-11-20T10:44:57.609Z,90.51
2023-11-20T10:48:23.708Z,90.56
2023-11-20T10:51:55.778Z,90.63
2023-11-20T10:55:28.501Z,90.74
2023-11-20T10:58:54.649Z,90.85
2023-11-20T11:02:22.307Z,90.90
2023-11-20T11:05:47.243Z,90.94
2023-11-20T11:09:14.566Z,91.03
2023-11-20T11:12:45.894Z,91.05
2023-11-20T11:16:15.370Z,91.06
2023-11-20T11:19:46.734Z,91.14
2023-11-20T11:23:13.854Z,91.19
2023-11-20T11:26:53.509Z,91.27
2023-11-20T11:30:19.496Z,91.33
2023-11-20T11:33:52.506Z,91.48
2023-11-20T11:37:51.966Z,91.59
2023-11-20T11:41:24.951Z,91.70
2023-11-20T11:45:10.570Z,91.76
2023-11-20T11:48:37.251Z,91.85
2023-11-20T11:52:10.059Z,91.97
2023-11-20T11:55:44.815Z,92.09
2023-11-20T11:59:15.013Z,92.09
2023-11-20T12:03:10.734Z,92.15
2023-11-20T12:06:35.756Z,92.22
2023-11-20T12:10:00.535Z,92.24
2023-11-20T12:13:25.296Z,92.35
2023-11-20T12:16:49.872Z,92.44
2023-11-20T12:20:14.204Z,92.59
2023-11-20T12:23:44.737Z,92.58
2023-11-20T12:27:09.742Z,92.53
2023-11-20T12:30:34.389Z,92.49
2023-11-20T12:33:58.760Z,92.48
2023-11-20T12:37:23.108Z,92.49
2023-11-20T12:40:53.025Z,92.54
2023-11-20T12:44:17.178Z,92.58
2023-11-20T12:47:41.174Z,92.57
2023-11-20T12:51:08.030Z,92.60
2023-11-20T12:54:32.951Z,92.60
2023-11-20T12:57:57.142Z,92.59
2023-11-20T13:01:21.555Z,92.62
2023-11-20T13:04:54.195Z,92.70
2023-11-20T13:08:21.003Z,92.81
2023-11-20T13:11:45.279Z,92.86
2023-11-20T13:15:09.683Z,92.84
2023-11-20T13:18:46.554Z,92.85
2023-11-20T13:22:10.670Z,92.86
2023-11-20T13:25:34.718Z,92.94
2023-11-20T13:28:59.929Z,92.96
2023-11-20T13:32:24.651Z,92.99
2023-11-20T13:35:48.749Z,93.01
2023-11-20T13:39:20.399Z,93.00
2023-11-20T13:42:44.690Z,93.04
2023-11-20T13:46:08.683Z,93.07
2023-11-20T13:49:32.824Z,93.15
2023-11-20T13:52:57.513Z,93.17
2023-11-20T13:56:21.615Z,93.20
2023-11-20T13:59:45.577Z,93.23
2023-11-20T14:03:09.978Z,93.27
2023-11-20T14:06:34.524Z,93.28
2023-11-20T14:09:58.648Z,93.32
2023-11-20T14:13:23.240Z,93.42
2023-11-20T14:16:47.374Z,93.47
2023-11-20T14:20:14.167Z,93.52
2023-11-20T14:23:40.320Z,93.51
2023-11-20T14:27:04.556Z,93.54
2023-11-20T14:30:49.196Z,93.55
2023-11-20T14:34:47.148Z,93.56
2023-11-20T14:38:45.149Z,93.56
2023-11-20T14:42:43.077Z,93.51
2023-11-20T14:46:41.173Z,93.52
2023-11-20T14:50:39.120Z,93.55
2023-11-20T14:54:37.120Z,93.52
2023-11-20T14:58:35.104Z,93.50
2023-11-20T15:02:33.167Z,93.47
2023-11-20T15:06:31.037Z,93.46
2023-11-20T15:10:30.185Z,93.46
2023-11-20T15:14:28.021Z,93.43
2023-11-20T15:18:26.048Z,93.45
2023-11-20T15:22:24.041Z,93.49
2023-11-20T15:26:22.032Z,93.53
2023-11-20T15:30:23.094Z,93.53
2023-11-20T15:34:21.080Z,93.53
2023-11-20T15:38:19.052Z,93.56
2023-11-20T15:42:17.007Z,93.57
2023-11-20T15:46:20.110Z,93.57
2023-11-20T15:50:19.008Z,93.52
2023-11-20T15:54:18.345Z,93.49
2023-11-20T15:58:16.065Z,93.48
2023-11-20T16:02:15.183Z,93.50
2023-11-20T16:06:13.048Z,93.49
2023-11-20T16:10:16.762Z,93.50
2023-11-20T16:14:15.247Z,93.49
2023-11-20T16:18:12.981Z,93.47
2023-11-20T16:22:11.051Z,93.48
2023-11-20T16:26:09.740Z,93.49
2023-11-20T16:30:08.950Z,93.49
2023-11-20T16:34:06.980Z,93.45
2023-11-20T16:38:09.025Z,93.43
2023-11-20T16:42:06.882Z,93.39
2023-11-20T16:46:05.103Z,93.36
2023-11-20T16:50:03.914Z,93.33
2023-11-20T16:54:04.894Z,93.30
2023-11-20T16:58:03.080Z,93.28
2023-11-20T17:02:00.945Z,93.27
2023-11-20T17:05:59.860Z,93.26
2023-11-20T17:09:58.001Z,93.24
2023-11-20T17:13:55.864Z,93.23
2023-11-20T17:17:53.992Z,93.22
2023-11-20T17:21:51.857Z,93.19
2023-11-20T17:25:49.864Z,93.17
2023-11-20T17:29:47.916Z,93.17
2023-11-20T17:33:47.905Z,93.19
2023-11-20T17:37:45.832Z,93.21
2023-11-20T17:41:43.906Z,93.26
2023-11-20T17:45:43.892Z,93.30
2023-11-20T17:49:41.861Z,93.32
2023-11-20T17:53:39.840Z,93.33
2023-11-20T17:57:37.948Z,93.36
2023-11-20T18:01:35.933Z,93.37
2023-11-20T18:05:33.881Z,93.37
2023-11-20T18:09:32.909Z,93.42
2023-11-20T18:13:30.798Z,93.38
2023-11-20T18:17:08.652Z,93.36
2023-11-20T18:20:32.771Z,93.39
2023-11-20T18:23:56.766Z,93.39
2023-11-20T18:27:20.968Z,93.38
2023-11-20T18:30:45.174Z,93.37
2023-11-20T18:34:09.754Z,93.36
2023-11-20T18:37:33.839Z,93.37
2023-11-20T18:40:58.076Z,93.36
2023-11-20T18:44:22.930Z,93.35
2023-11-20T18:47:48.062Z,93.36
2023-11-20T18:51:12.367Z,93.36
2023-11-20T18:54:39.029Z,93.34
2023-11-20T18:58:04.719Z,93.35
2023-11-20T19:01:29.335Z,93.34
2023-11-20T19:04:54.887Z,93.37
2023-11-20T19:08:18.947Z,93.37
2023-11-20T19:11:46.838Z,93.37
2023-11-20T19:15:12.058Z,93.37
2023-11-20T19:18:37.969Z,93.39
2023-11-20T19:22:02.181Z,93.41
2023-11-20T19:25:26.279Z,93.49
2023-11-20T19:28:50.484Z,93.61
2023-11-20T19:32:14.650Z,93.67
2023-11-20T19:35:39.777Z,93.64
2023-11-20T19:39:04.727Z,93.72
2023-11-20T19:42:29.135Z,93.77
2023-11-20T19:45:53.210Z,93.81
2023-11-20T19:49:17.311Z,93.82
2023-11-20T19:52:41.579Z,93.84
2023-11-20T19:56:06.096Z,93.89
2023-11-20T19:59:31.426Z,93.90
2023-11-20T20:02:57.158Z,93.93
2023-11-20T20:06:23.690Z,93.95
2023-11-20T20:09:47.974Z,93.94
2023-11-20T20:13:12.546Z,93.96
2023-11-20T20:16:38.734Z,93.99
2023-11-20T20:20:04.378Z,94.00
2023-11-20T20:23:33.710Z,94.06
2023-11-20T20:26:57.750Z,94.08
2023-11-20T20:30:25.720Z,94.08
2023-11-20T20:33:49.966Z,94.10
2023-11-20T20:37:14.356Z,94.12
2023-11-20T20:40:39.801Z,94.14
2023-11-20T20:44:04.642Z,94.16
2023-11-20T20:47:28.867Z,94.16
2023-11-20T20:50:53.468Z,94.14
2023-11-20T20:54:17.467Z,94.14
2023-11-20T20:57:42.127Z,94.14
2023-11-20T21:01:06.475Z,94.15
2023-11-20T21:04:30.632Z,94.15
2023-11-20T21:07:54.607Z,94.15
2023-11-20T21:11:18.611Z,94.17
2023-11-20T21:14:44.514Z,94.17
2023-11-20T21:18:10.864Z,94.17
2023-11-20T21:21:35.862Z,94.17
2023-11-20T21:25:00.258Z,94.15
2023-11-20T21:28:24.464Z,94.14
2023-11-20T21:31:49.745Z,94.12
2023-11-20T21:35:13.972Z,94.08
2023-11-20T21:38:39.379Z,94.07
2023-11-20T21:42:03.490Z,94.07
2023-11-20T21:45:27.596Z,94.07
2023-11-20T21:48:51.669Z,94.07
2023-11-20T21:52:15.761Z,94.06
2023-11-20T21:55:39.858Z,94.04
2023-11-20T21:59:03.912Z,94.03
2023-11-20T22:02:28.094Z,94.02
2023-11-20T22:05:52.049Z,94.03
2023-11-20T22:09:16.393Z,94.03
2023-11-20T22:12:40.438Z,94.05
2023-11-20T22:16:04.617Z,94.05
2023-11-20T22:19:28.734Z,94.07
2023-11-20T22:22:52.936Z,94.07
2023-11-20T22:26:17.215Z,94.10
2023-11-20T22:29:41.891Z,94.10
2023-11-20T22:33:06.247Z,94.10
2023-11-20T22:36:30.684Z,94.13
2023-11-20T22:39:54.683Z,94.22
2023-11-20T22:43:20.085Z,94.22
2023-11-20T22:46:44.402Z,94.23
2023-11-20T22:50:09.160Z,94.28
2023-11-20T22:53:33.383Z,94.31
2023-11-20T22:56:57.406Z,94.39
2023-11-20T23:00:27.463Z,94.44
2023-11-20T23:03:51.756Z,94.50
2023-11-20T23:07:16.186Z,94.56
2023-11-20T23:10:40.311Z,94.56
2023-11-20T23:14:05.136Z,94.55
2023-11-20T23:17:29.246Z,94.63
2023-11-20T23:20:53.674Z,94.67
2023-11-20T23:24:17.768Z,94.71
2023-11-20T23:27:42.017Z,94.72
2023-11-20T23:31:06.854Z,94.74
2023-11-20T23:34:30.865Z,94.78
2023-11-20T23:37:54.853Z,94.80
2023-11-20T23:41:18.772Z,94.82
2023-11-20T23:44:42.709Z,94.84
2023-11-20T23:48:08.876Z,94.87
2023-11-20T23:51:32.878Z,94.90
2023-11-20T23:54:56.853Z,94.93
2023-11-20T23:58:21.459Z,94.96
